Latest Coastal Weather Observations for Mandora

IDW60701

Issued at 5:12 pm WST Saturday 23 July 2016 (issued every 10 minutes, with the page automatically refreshed every 10 minutes)

About coastal observations | Map of coastal stations | Coastal observations for WA | Marine services | Other Formats
Station Details ID: 004019 Name: MANDORA Lat: -19.74 Lon: 120.84 Height: 7.5 m
Data from the previous 72 hours. | See also: Recent months at Mandora
Date/Time
WST
Temp
°C
Wind Pressure Rain since
9am
mm
Weather Cloud Vis
km
Sea
Height
m
Swell
Dir  Spd
kts
Gust
kts
hPa Trend Height
m
Period
s
Dir
23/05:00pm 30.8 SE 6 10 1012.4 - 0.0 - - - - - - -
23/04:30pm 31.9 SE 6 10 1012.3 - 0.0 - - - - - - -
23/04:00pm 32.0 SE 7 13 1012.4 - 0.0 - - - - - - -
23/03:30pm 32.5 SE 7 13 1012.5 - 0.0 - - - - - - -
23/03:00pm 32.8 ESE 8 11 1012.6 - 0.0 - - - - - - -
23/02:30pm 32.3 SE 9 15 1013.0 - 0.0 - - - - - - -
23/02:00pm 31.9 ESE 10 16 1013.3 - 0.0 - - - - - - -
23/01:30pm 31.8 SE 10 16 1013.9 - 0.0 - - - - - - -
23/01:00pm 31.0 ESE 11 20 1014.3 - 0.0 - - - - - - -
23/12:30pm 30.5 SE 11 17 1014.8 - 0.0 - - - - - - -
23/12:00pm 29.9 ESE 12 19 1015.4 - 0.0 - - - - - - -
23/11:30am 29.2 ESE 12 23 1015.8 - 0.0 - - - - - - -
23/11:00am 28.5 SE 14 20 1016.2 - 0.0 - - - - - - -
23/10:30am 27.1 SE 13 20 1016.7 - 0.0 - - - - - - -
23/10:00am 26.7 SE 14 21 1017.0 - 0.0 - - - - - - -
23/09:30am 25.6 SE 14 22 1017.1 - 0.0 - - - - - - -
23/09:00am 24.1 SE 13 21 1017.1 - 0.0 - - - - - - -
23/08:30am 23.1 SE 12 20 1016.9 - 0.0 - - - - - - -
23/08:00am 21.5 SE 12 17 1016.5 - 0.0 - - - - - - -
23/07:30am 20.3 SE 9 15 1016.2 - 0.0 - - - - - - -
23/07:00am 19.1 SE 9 13 1015.9 - 0.0 - - - - - - -
23/06:30am 18.7 SE 8 11 1015.6 - 0.0 - - - - - - -
23/06:00am 19.1 SE 8 14 1015.2 - 0.0 - - - - - - -
23/05:30am 19.4 SE 8 15 1015.0 - 0.0 - - - - - - -
23/05:00am 19.7 SE 8 14 1014.6 - 0.0 - - - - - - -
23/04:30am 20.1 SE 9 14 1014.5 - 0.0 - - - - - - -
23/04:00am 20.4 SE 9 14 1014.4 - 0.0 - - - - - - -
23/03:30am 20.6 SE 8 14 1014.5 - 0.0 - - - - - - -
23/03:00am 20.8 SE 8 13 1014.6 - 0.0 - - - - - - -
23/02:30am 20.9 SE 7 11 1014.7 - 0.0 - - - - - - -
23/02:00am 21.2 SE 8 13 1014.6 - 0.0 - - - - - - -
23/01:30am 21.5 SE 8 13 1014.7 - 0.0 - - - - - - -
23/01:00am 21.6 SE 7 11 1014.8 - 0.0 - - - - - - -
23/12:30am 22.1 SE 8 13 1014.8 - 0.0 - - - - - - -
23/12:00am 22.5 SE 8 11 1014.8 - 0.0 - - - - - - -
 
Date/Time
WST
Temp
°C
Wind Pressure Rain since
9am
mm
Weather Cloud Vis
km
Sea
Height
m
Swell
Dir  Spd
kts
Gust
kts
hPa Trend Height
m
Period
s
Dir
22/11:30pm 23.3 SSE 8 13 1014.6 - 0.0 - - - - - - -
22/11:00pm 23.6 SE 8 13 1014.8 - 0.0 - - - - - - -
22/10:30pm 23.8 SSE 7 10 1014.8 - 0.0 - - - - - - -
22/10:00pm 24.4 SSE 8 12 1014.8 - 0.0 - - - - - - -
22/09:30pm 23.7 SSE 7 9 1014.6 - 0.0 - - - - - - -
22/09:00pm 23.1 SSE 7 9 1014.4 - 0.0 - - - - - - -
22/08:30pm 23.5 SSE 7 9 1014.1 - 0.0 - - - - - - -
22/08:00pm 24.6 SSE 7 10 1014.0 - 0.0 - - - - - - -
22/07:30pm 23.0 S 5 6 1013.7 - 0.0 - - - - - - -
22/07:00pm 25.4 SSW 5 8 1013.3 - 0.0 - - - - - - -
22/06:30pm 23.9 W 4 5 1012.9 - 0.0 - - - - - - -
22/06:00pm 25.4 WNW 3 5 1012.5 - 0.0 - - - - - - -
22/05:30pm 30.0 SSE 5 7 1012.2 - 0.0 - - - - - - -
22/05:00pm 31.7 SSE 5 9 1012.1 - 0.0 - - - - - - -
22/04:30pm 32.4 SSE 6 9 1012.0 - 0.0 - - - - - - -
22/04:00pm 32.8 SE 7 11 1012.0 - 0.0 - - - - - - -
22/03:30pm 32.9 SSE 7 13 1012.0 - 0.0 - - - - - - -
22/03:00pm 33.6 SE 5 10 1012.1 - 0.0 - - - - - - -
22/02:30pm 33.5 SE 7 13 1012.2 - 0.0 - - - - - - -
22/02:00pm 33.0 ESE 7 10 1012.5 - 0.0 - - - - - - -
22/01:30pm 33.2 ESE 6 11 1013.0 - 0.0 - - - - - - -
22/01:00pm 33.1 ESE 8 14 1013.3 - 0.0 - - - - - - -
22/12:30pm 32.3 SSE 9 17 1013.8 - 0.0 - - - - - - -
22/12:00pm 32.0 SE 8 13 1014.3 - 0.0 - - - - - - -
22/11:30am 31.2 SE 9 15 1014.6 - 0.0 - - - - - - -
22/11:00am 30.9 ESE 8 14 1015.0 - 0.0 - - - - - - -
22/10:30am 29.5 SE 11 15 1015.6 - 0.0 - - - - - - -
22/10:00am 28.8 ESE 10 15 1015.8 - 0.0 - - - - - - -
22/09:30am 27.1 ESE 11 19 1016.1 - 0.0 - - - - - - -
22/09:00am 25.9 SE 11 17 1016.3 - 0.0 - - - - - - -
22/08:30am 24.2 SE 10 15 1016.2 - 0.0 - - - - - - -
22/08:00am 22.7 SE 9 14 1016.1 - 0.0 - - - - - - -
22/07:30am 20.4 SE 7 12 1015.9 - 0.0 - - - - - - -
22/07:00am 18.1 SSE 7 10 1015.8 - 0.0 - - - - - - -
22/06:30am 17.4 SSE 7 9 1015.3 - 0.0 - - - - - - -
22/06:00am 17.7 SSE 7 10 1015.0 - 0.0 - - - - - - -
22/05:30am 16.9 S 5 7 1014.8 - 0.0 - - - - - - -
22/05:00am 17.2 SSW 5 6 1014.6 - 0.0 - - - - - - -
22/04:30am 17.8 SSW 6 7 1014.4 - 0.0 - - - - - - -
22/04:00am 17.9 SSW 6 8 1014.5 - 0.0 - - - - - - -
22/03:30am 17.7 SW 6 7 1014.6 - 0.0 - - - - - - -
22/03:00am 17.8 SW 5 6 1014.6 - 0.0 - - - - - - -
22/02:30am 17.8 SW 5 6 1014.8 - 0.0 - - - - - - -
22/02:00am 18.0 SW 5 7 1014.9 - 0.0 - - - - - - -
22/01:30am 18.5 SW 5 7 1015.3 - 0.0 - - - - - - -
22/01:00am 18.7 SW 5 7 1015.4 - 0.0 - - - - - - -
22/12:30am 19.2 SW 6 8 1015.5 - 0.0 - - - - - - -
22/12:00am 19.1 SW 6 8 1015.4 - 0.0 - - - - - - -
 
Date/Time
WST
Temp
°C
Wind Pressure Rain since
9am
mm
Weather Cloud Vis
km
Sea
Height
m
Swell
Dir  Spd
kts
Gust
kts
hPa Trend Height
m
Period
s
Dir
21/11:30pm 19.0 SW 6 9 1015.5 - 0.0 - - - - - - -
21/11:00pm 19.1 SW 6 9 1015.7 - 0.0 - - - - - - -
21/10:30pm 18.9 SW 6 7 1015.6 - 0.0 - - - - - - -
21/10:00pm 18.7 WSW 6 7 1015.5 - 0.0 - - - - - - -
21/09:30pm 18.4 WSW 6 7 1015.7 - 0.0 - - - - - - -
21/09:00pm 17.2 W 6 7 1015.2 - 0.0 - - - - - - -
21/08:30pm 16.8 WNW 4 4 1015.1 - 0.0 - - - - - - -
21/08:00pm 18.5 W 4 4 1014.8 - 0.0 - - - - - - -
21/07:30pm 19.4 W 4 5 1014.6 - 0.0 - - - - - - -
21/07:00pm 20.3 W 5 6 1014.4 - 0.0 - - - - - - -
21/06:30pm 21.4 W 6 7 1014.0 - 0.0 - - - - - - -
21/06:00pm 22.4 W 6 8 1013.5 - 0.0 - - - - - - -
21/05:30pm 24.0 WNW 5 7 1013.2 - 0.0 - - - - - - -
21/05:00pm 26.0 WNW 6 9 1013.1 - 0.0 - - - - - - -
21/04:30pm 27.4 WNW 6 9 1012.9 - 0.0 - - - - - - -
21/04:00pm 28.1 WNW 7 10 1012.8 - 0.0 - - - - - - -
21/03:30pm 28.5 NW 8 10 1012.9 - 0.0 - - - - - - -
21/03:00pm 28.7 WNW 7 11 1013.0 - 0.0 - - - - - - -
21/02:30pm 29.0 NW 7 12 1013.2 - 0.0 - - - - - - -
21/02:00pm 29.0 WNW 9 13 1013.5 - 0.0 - - - - - - -
21/01:30pm 29.7 WNW 8 11 1013.8 - 0.0 - - - - - - -
21/01:00pm 29.7 WNW 7 12 1014.0 - 0.0 - - - - - - -
21/12:30pm 29.0 WNW 8 12 1014.4 - 0.0 - - - - - - -
21/12:00pm 28.6 WNW 7 11 1014.8 - 0.0 - - - - - - -
21/11:30am 28.6 WNW 6 11 1015.1 - 0.0 - - - - - - -
21/11:00am 28.4 WNW 5 8 1015.6 - 0.0 - - - - - - -
21/10:30am 27.2 NNW 4 9 1015.9 - 0.0 - - - - - - -
21/10:00am 25.9 WSW 5 7 1016.2 - 0.0 - - - - - - -
21/09:30am 24.4 SSW 4 7 1016.2 - 0.0 - - - - - - -
21/09:00am 22.8 SSE 4 6 1016.3 - 0.0 - - - - - - -
21/08:30am 21.2 ESE 3 5 1016.0 - 0.0 - - - - - - -
21/08:00am 18.4 ESE 2 4 1016.0 - 0.0 - - - - - - -
21/07:30am 15.1 ESE 3 5 1015.7 - 0.0 - - - - - - -
21/07:00am 13.3 ESE 5 5 1015.3 - 0.0 - - - - - - -
21/06:30am 12.4 ESE 4 5 1015.2 - 0.0 - - - - - - -
21/06:00am 12.1 E 2 4 1014.9 - 0.0 - - - - - - -
21/05:30am 11.8 ENE 2 4 1014.4 - 0.0 - - - - - - -
21/05:00am 12.2 NE 5 5 1014.1 - 0.0 - - - - - - -
21/04:30am 12.4 NE 3 5 1013.9 - 0.0 - - - - - - -
21/04:00am 12.7 CALM 0 0 1013.8 - 0.0 - - - - - - -
21/03:30am 12.5 CALM 0 0 1013.7 - 0.0 - - - - - - -
21/03:00am 13.0 SSE 1 3 1013.8 - 0.0 - - - - - - -
21/02:30am 13.6 CALM 0 0 1013.7 - 0.0 - - - - - - -
21/02:00am 14.2 SSE 1 4 1013.7 - 0.0 - - - - - - -
21/01:30am 14.5 S 3 5 1013.7 - 0.0 - - - - - - -
21/01:00am 15.5 SSW 4 5 1013.9 - 0.0 - - - - - - -
21/12:30am 15.6 S 3 4 1013.9 - 0.0 - - - - - - -
21/12:00am 17.0 SSW 5 6 1014.1 - 0.0 - - - - - - -
 
Date/Time
WST
Temp
°C
Wind Pressure Rain since
9am
mm
Weather Cloud Vis
km
Sea
Height
m
Swell
Dir  Spd
kts
Gust
kts
hPa Trend Height
m
Period
s
Dir
20/11:30pm 17.8 SSW 5 7 1014.0 - 0.0 - - - - - - -
20/11:00pm 17.4 SW 5 6 1014.1 - 0.0 - - - - - - -
20/10:30pm 17.2 SW 6 6 1014.2 - 0.0 - - - - - - -
20/10:00pm 16.9 SW 5 6 1014.4 - 0.0 - - - - - - -
20/09:30pm 17.6 SW 5 5 1014.3 - 0.0 - - - - - - -
20/09:00pm 18.0 SW 4 5 1014.3 - 0.0 - - - - - - -
20/08:30pm 18.2 WSW 5 6 1014.2 - 0.0 - - - - - - -
20/08:00pm 18.3 WSW 5 6 1014.1 - 0.0 - - - - - - -
20/07:30pm 19.2 WNW 4 5 1014.0 - 0.0 - - - - - - -
20/07:00pm 19.7 WNW 4 4 1013.8 - 0.0 - - - - - - -
20/06:30pm 20.4 NW 4 5 1013.7 - 0.0 - - - - - - -
20/06:00pm 21.7 NW 5 6 1013.2 - 0.0 - - - - - - -
20/05:30pm 23.8 NW 5 6 1013.1 - 0.0 - - - - - - -

Other Formats:

Comma delimited format used in spreadsheet applications
http://www.bom.gov.au/fwo/IDW60701/IDW60701.94200.axf

JavaScript Object Notation format (JSON) in row-major order
http://www.bom.gov.au/fwo/IDW60701/IDW60701.94200.json